createdAt,value
2023-03-06T00:00:50.428Z,10.00
2023-03-06T00:01:52.357Z,9.50
2023-03-06T00:02:55.190Z,9.23
2023-03-06T00:03:58.089Z,9.27
2023-03-06T00:05:00.944Z,8.57
2023-03-06T00:06:03.000Z,8.55
2023-03-06T00:07:07.351Z,9.68
2023-03-06T00:08:09.343Z,9.50
2023-03-06T00:09:12.195Z,9.93
2023-03-06T00:10:15.455Z,8.90
2023-03-06T00:11:18.396Z,9.55
2023-03-06T00:12:20.234Z,9.55
2023-03-06T00:13:26.516Z,9.13
2023-03-06T00:14:28.361Z,10.43
2023-03-06T00:15:31.194Z,8.90
2023-03-06T00:16:33.189Z,8.70
2023-03-06T00:17:36.197Z,9.95
2023-03-06T00:18:38.125Z,9.18
2023-03-06T00:19:40.947Z,9.25
2023-03-06T00:20:44.400Z,8.73
2023-03-06T00:21:47.230Z,9.00
2023-03-06T00:22:51.038Z,9.98
2023-03-06T00:23:53.926Z,8.80
2023-03-06T00:24:55.822Z,9.25
2023-03-06T00:25:58.691Z,10.68
2023-03-06T00:27:00.518Z,8.75
2023-03-06T00:28:03.481Z,9.35
2023-03-06T00:29:05.578Z,8.98
2023-03-06T00:30:11.921Z,9.55
2023-03-06T00:31:13.815Z,9.30
2023-03-06T00:32:16.782Z,8.90
2023-03-06T00:33:18.663Z,9.38
2023-03-06T00:34:21.690Z,10.00
2023-03-06T00:35:23.927Z,9.02
2023-03-06T00:36:26.744Z,8.48
2023-03-06T00:37:28.625Z,8.27
2023-03-06T00:38:35.541Z,9.68
2023-03-06T00:39:37.419Z,8.10
2023-03-06T00:40:40.318Z,8.23
2023-03-06T00:41:42.251Z,7.65
2023-03-06T00:42:45.829Z,8.57
2023-03-06T00:43:47.696Z,7.88
2023-03-06T00:44:50.497Z,8.25
2023-03-06T00:45:52.352Z,9.30
2023-03-06T00:46:55.277Z,8.43
2023-03-06T00:47:57.183Z,8.85
2023-03-06T00:49:00.792Z,7.80
2023-03-06T00:50:03.058Z,8.80
2023-03-06T00:51:07.101Z,8.50
2023-03-06T00:52:08.963Z,8.75
2023-03-06T00:53:13.253Z,8.57
2023-03-06T00:54:17.174Z,9.45
2023-03-06T00:55:20.051Z,9.30
2023-03-06T00:56:21.931Z,9.02
2023-03-06T00:57:25.596Z,9.55
2023-03-06T00:58:28.405Z,10.70
2023-03-06T00:59:35.956Z,9.77
2023-03-06T01:00:38.426Z,8.73
2023-03-06T01:01:42.594Z,9.50
2023-03-06T01:02:44.522Z,7.60
2023-03-06T01:03:47.385Z,10.32
2023-03-06T01:04:49.354Z,9.05
2023-03-06T01:05:52.205Z,9.10
2023-03-06T01:06:54.052Z,9.00
2023-03-06T01:07:56.991Z,9.27
2023-03-06T01:08:59.250Z,9.52
2023-03-06T01:10:03.542Z,9.35
2023-03-06T01:11:05.812Z,8.93
2023-03-06T01:12:09.346Z,8.48
2023-03-06T01:13:11.230Z,8.43
2023-03-06T01:14:14.300Z,8.38
2023-03-06T01:15:16.237Z,9.23
2023-03-06T01:16:21.215Z,8.77
2023-03-06T01:17:23.708Z,8.63
2023-03-06T01:18:26.526Z,8.65
2023-03-06T01:19:28.481Z,8.23
2023-03-06T01:20:31.903Z,7.60
2023-03-06T01:21:33.996Z,9.07
2023-03-06T01:22:36.772Z,9.80
2023-03-06T01:23:38.600Z,9.25
2023-03-06T01:24:41.579Z,8.68
2023-03-06T01:25:45.021Z,7.80
2023-03-06T01:26:47.939Z,8.32
2023-03-06T01:27:49.794Z,8.60
2023-03-06T01:28:53.181Z,8.77
2023-03-06T01:29:55.290Z,8.70
2023-03-06T01:30:58.671Z,8.07
2023-03-06T01:32:00.657Z,9.70
2023-03-06T01:33:03.578Z,8.38
2023-03-06T01:34:05.448Z,8.73
2023-03-06T01:35:09.271Z,7.60
2023-03-06T01:36:13.078Z,7.00
2023-03-06T01:37:16.272Z,8.68
2023-03-06T01:38:18.188Z,9.07
2023-03-06T01:39:21.029Z,9.18
2023-03-06T01:40:22.915Z,8.90
2023-03-06T01:41:27.161Z,10.18
2023-03-06T01:42:30.808Z,10.20
2023-03-06T01:43:36.907Z,9.52
2023-03-06T01:45:00.138Z,8.07
2023-03-06T01:46:26.116Z,8.95
2023-03-06T01:47:27.992Z,6.95
2023-03-06T01:48:30.917Z,9.07
2023-03-06T01:49:36.792Z,8.70
2023-03-06T01:50:39.883Z,8.77
2023-03-06T01:51:49.561Z,7.78
2023-03-06T01:52:54.522Z,8.35
2023-03-06T01:54:01.571Z,9.05
2023-03-06T01:55:08.309Z,7.55
2023-03-06T01:56:13.375Z,7.97
2023-03-06T01:57:23.375Z,8.13
2023-03-06T01:58:25.346Z,7.70
2023-03-06T01:59:30.223Z,8.77
2023-03-06T02:00:32.387Z,7.90
2023-03-06T02:01:36.108Z,8.63
2023-03-06T02:02:39.612Z,8.35
2023-03-06T02:03:46.198Z,8.57
2023-03-06T02:04:48.697Z,9.05
2023-03-06T02:05:51.689Z,8.95
2023-03-06T02:06:54.145Z,7.88
2023-03-06T02:07:58.468Z,9.07
2023-03-06T02:09:00.425Z,7.70
2023-03-06T02:10:03.528Z,8.60
2023-03-06T02:11:12.451Z,8.18
2023-03-06T02:12:20.671Z,8.27
2023-03-06T02:13:22.741Z,8.32
2023-03-06T02:14:28.725Z,8.30
2023-03-06T02:15:32.350Z,7.90
2023-03-06T02:16:35.868Z,8.50
2023-03-06T02:17:37.789Z,8.05
2023-03-06T02:18:41.766Z,8.10
2023-03-06T02:19:53.595Z,9.27
2023-03-06T02:20:58.950Z,9.55
2023-03-06T02:22:02.167Z,9.23
2023-03-06T02:23:10.353Z,9.18
2023-03-06T02:24:23.519Z,7.93
2023-03-06T02:25:34.848Z,8.32
2023-03-06T02:26:39.524Z,8.63
2023-03-06T02:27:41.895Z,8.55
2023-03-06T02:28:44.725Z,9.32
2023-03-06T02:29:47.538Z,7.75
2023-03-06T02:30:53.379Z,9.02
2023-03-06T02:31:55.912Z,8.50
2023-03-06T02:32:59.214Z,9.40
2023-03-06T02:34:03.996Z,8.85
2023-03-06T02:35:07.908Z,8.48
2023-03-06T02:36:15.531Z,8.45
2023-03-06T02:37:18.563Z,8.82
2023-03-06T02:38:24.100Z,8.38
2023-03-06T02:39:30.920Z,7.40
2023-03-06T02:40:35.477Z,8.60
2023-03-06T02:41:37.419Z,8.38
2023-03-06T02:42:47.113Z,9.57
2023-03-06T02:43:52.334Z,8.77
2023-03-06T02:44:56.934Z,8.23
2023-03-06T02:45:58.942Z,8.82
2023-03-06T02:47:02.196Z,8.35
2023-03-06T02:48:05.271Z,9.20
2023-03-06T02:49:08.201Z,8.40
2023-03-06T02:50:11.230Z,9.60
2023-03-06T02:51:14.065Z,8.15
2023-03-06T02:52:16.014Z,8.10
2023-03-06T02:53:20.244Z,8.68
2023-03-06T02:54:22.074Z,7.60
2023-03-06T02:55:25.976Z,8.75
2023-03-06T02:56:30.958Z,8.10
2023-03-06T02:57:34.130Z,9.00
2023-03-06T02:58:36.113Z,8.18
2023-03-06T02:59:39.030Z,8.75
2023-03-06T03:00:41.421Z,9.15
2023-03-06T03:01:47.784Z,8.38
2023-03-06T03:02:50.792Z,8.45
2023-03-06T03:03:52.848Z,8.10
2023-03-06T03:04:57.266Z,7.88
2023-03-06T03:06:00.226Z,7.95
2023-03-06T03:07:08.218Z,8.50
2023-03-06T03:08:12.862Z,8.45
2023-03-06T03:09:15.796Z,10.07
2023-03-06T03:10:18.040Z,9.05
2023-03-06T03:11:22.000Z,8.38
2023-03-06T03:12:25.380Z,8.85
2023-03-06T03:13:28.244Z,9.02
2023-03-06T03:14:30.434Z,9.07
2023-03-06T03:15:33.371Z,8.80
2023-03-06T03:16:36.277Z,8.30
2023-03-06T03:17:42.240Z,8.10
2023-03-06T03:18:45.008Z,8.50
2023-03-06T03:19:48.114Z,8.85
2023-03-06T03:20:50.167Z,9.20
2023-03-06T03:21:53.027Z,9.02
2023-03-06T03:22:57.879Z,8.35
2023-03-06T03:24:00.685Z,8.38
2023-03-06T03:25:04.424Z,8.30
2023-03-06T03:26:09.389Z,9.98
2023-03-06T03:27:14.603Z,9.65
2023-03-06T03:28:20.288Z,8.35
2023-03-06T03:29:22.245Z,7.93
2023-03-06T03:30:25.054Z,9.60
2023-03-06T03:31:27.189Z,8.13
2023-03-06T03:32:30.657Z,6.95
2023-03-06T03:33:32.616Z,9.13
2023-03-06T03:34:35.725Z,9.10
2023-03-06T03:35:38.010Z,8.68
2023-03-06T03:36:41.046Z,8.60
2023-03-06T03:37:45.067Z,9.38
2023-03-06T03:38:48.499Z,9.45
2023-03-06T03:39:50.453Z,8.30
2023-03-06T03:40:53.450Z,8.00
2023-03-06T03:41:55.483Z,8.30
2023-03-06T03:42:58.698Z,8.20
2023-03-06T03:44:02.171Z,8.60
2023-03-06T03:45:05.489Z,9.68
2023-03-06T03:46:07.470Z,10.27
2023-03-06T03:47:10.470Z,9.32
2023-03-06T03:48:12.493Z,9.23
2023-03-06T03:49:15.625Z,8.25
2023-03-06T03:50:19.376Z,8.68
2023-03-06T03:51:22.976Z,9.07
2023-03-06T03:52:28.452Z,8.48
2023-03-06T03:53:31.354Z,8.90
2023-03-06T03:54:33.874Z,8.30
2023-03-06T03:55:36.826Z,7.95
2023-03-06T03:56:40.701Z,9.50
2023-03-06T03:57:49.020Z,8.55
2023-03-06T03:58:51.364Z,9.88
2023-03-06T03:59:55.920Z,9.40
2023-03-06T04:01:16.766Z,8.05
2023-03-06T04:02:21.617Z,8.25
2023-03-06T04:03:32.947Z,7.82
2023-03-06T04:04:35.029Z,9.38
2023-03-06T04:05:37.971Z,8.30
2023-03-06T04:06:42.074Z,9.27
2023-03-06T04:07:45.253Z,8.95
2023-03-06T04:08:47.334Z,8.70
2023-03-06T04:09:50.460Z,8.48
2023-03-06T04:10:54.274Z,8.60
2023-03-06T04:11:58.614Z,8.60
2023-03-06T04:13:00.841Z,9.55
2023-03-06T04:14:04.479Z,8.25
2023-03-06T04:15:09.387Z,8.98
2023-03-06T04:16:12.261Z,8.02
2023-03-06T04:17:15.516Z,8.05
2023-03-06T04:18:19.498Z,8.95
2023-03-06T04:19:21.430Z,8.90
2023-03-06T04:20:26.018Z,8.52
2023-03-06T04:21:27.995Z,9.60
2023-03-06T04:22:31.140Z,9.07
2023-03-06T04:23:33.163Z,9.30
2023-03-06T04:24:36.285Z,9.10
2023-03-06T04:25:38.527Z,8.18
2023-03-06T04:26:43.508Z,9.07
2023-03-06T04:27:45.801Z,9.35
2023-03-06T04:28:49.099Z,9.18
2023-03-06T04:29:51.391Z,8.75
2023-03-06T04:30:55.667Z,8.70
2023-03-06T04:31:57.945Z,9.05
2023-03-06T04:33:01.190Z,8.65
2023-03-06T04:34:03.228Z,8.45
2023-03-06T04:35:07.088Z,8.77
2023-03-06T04:36:26.480Z,9.10
2023-03-06T04:37:31.096Z,8.93
2023-03-06T04:38:35.171Z,8.23
2023-03-06T04:39:39.490Z,8.70
2023-03-06T04:40:44.562Z,9.35
2023-03-06T04:41:46.823Z,8.40
2023-03-06T04:42:49.880Z,8.82
2023-03-06T04:43:51.823Z,10.40
2023-03-06T04:44:54.566Z,8.65
2023-03-06T04:45:58.177Z,9.18
2023-03-06T04:47:01.031Z,9.20
2023-03-06T04:48:02.948Z,7.95
2023-03-06T04:49:05.894Z,8.82
2023-03-06T04:50:09.144Z,8.52
2023-03-06T04:51:13.209Z,8.65
2023-03-06T04:52:15.030Z,8.35
2023-03-06T04:53:19.569Z,8.85
2023-03-06T04:54:21.673Z,9.30
2023-03-06T04:55:24.522Z,8.90
2023-03-06T04:56:26.734Z,7.57
2023-03-06T04:57:29.598Z,8.60
2023-03-06T04:58:31.612Z,9.13
2023-03-06T04:59:34.440Z,8.68
2023-03-06T05:00:36.321Z,8.60
2023-03-06T05:01:40.642Z,9.18
2023-03-06T05:02:43.060Z,9.10
2023-03-06T05:03:45.925Z,8.60
2023-03-06T05:04:47.776Z,10.48
2023-03-06T05:05:50.803Z,8.38
2023-03-06T05:06:52.623Z,9.05
2023-03-06T05:07:56.083Z,9.93
2023-03-06T05:08:58.062Z,8.82
2023-03-06T05:10:01.089Z,11.02
2023-03-06T05:11:03.066Z,8.88
2023-03-06T05:12:06.244Z,8.85
2023-03-06T05:13:08.235Z,8.27
2023-03-06T05:14:11.158Z,8.32
2023-03-06T05:15:13.945Z,10.05
2023-03-06T05:16:16.890Z,9.10
2023-03-06T05:17:20.328Z,8.85
2023-03-06T05:18:23.172Z,9.25
2023-03-06T05:19:25.101Z,8.60
2023-03-06T05:20:28.666Z,8.95
2023-03-06T05:21:30.518Z,8.68
2023-03-06T05:22:34.065Z,9.07
2023-03-06T05:23:38.515Z,8.32
2023-03-06T05:24:42.352Z,8.05
2023-03-06T05:25:44.144Z,8.60
2023-03-06T05:26:46.933Z,9.07
2023-03-06T05:27:49.000Z,8.23
2023-03-06T05:28:51.792Z,7.97
2023-03-06T05:29:54.686Z,8.32
2023-03-06T05:30:57.519Z,9.07
2023-03-06T05:31:59.459Z,8.48
2023-03-06T05:33:03.708Z,8.15
2023-03-06T05:34:05.736Z,8.30
2023-03-06T05:35:09.099Z,8.15
2023-03-06T05:36:11.619Z,7.25
2023-03-06T05:37:14.488Z,8.00
2023-03-06T05:38:17.103Z,7.60
2023-03-06T05:39:19.956Z,8.23
2023-03-06T05:40:23.068Z,8.18
2023-03-06T05:41:24.954Z,9.57
2023-03-06T05:42:28.725Z,8.88
2023-03-06T05:43:30.672Z,9.65
2023-03-06T05:44:34.264Z,8.30
2023-03-06T05:45:36.410Z,8.77
2023-03-06T05:46:39.420Z,8.50
2023-03-06T05:47:41.353Z,9.20
2023-03-06T05:48:47.198Z,8.02
2023-03-06T05:49:49.104Z,9.10
2023-03-06T05:50:56.587Z,8.38
2023-03-06T05:51:58.453Z,9.05
2023-03-06T05:53:03.943Z,9.48
2023-03-06T05:54:06.884Z,9.48
2023-03-06T05:55:11.641Z,8.07
2023-03-06T05:56:14.500Z,8.75
2023-03-06T05:57:16.486Z,8.63
2023-03-06T05:58:19.329Z,9.90
2023-03-06T05:59:21.373Z,8.65
2023-03-06T06:00:25.130Z,10.88
2023-03-06T06:01:28.461Z,9.02
2023-03-06T06:02:31.559Z,8.82
2023-03-06T06:03:33.625Z,10.07
2023-03-06T06:04:37.843Z,9.48
2023-03-06T06:05:40.199Z,7.60
2023-03-06T06:06:42.993Z,9.40
2023-03-06T06:07:44.818Z,9.50
2023-03-06T06:08:47.713Z,9.15
2023-03-06T06:09:53.202Z,9.38
2023-03-06T06:10:56.382Z,9.52
2023-03-06T06:12:00.695Z,10.00
2023-03-06T06:13:03.550Z,8.98
2023-03-06T06:14:05.376Z,9.45
2023-03-06T06:15:09.129Z,10.05
2023-03-06T06:16:12.625Z,9.48
2023-03-06T06:17:16.612Z,10.65
2023-03-06T06:18:18.743Z,8.93
2023-03-06T06:19:22.352Z,10.50
2023-03-06T06:20:27.477Z,9.00
2023-03-06T06:21:29.374Z,9.77
2023-03-06T06:22:32.205Z,9.60
2023-03-06T06:23:34.662Z,11.05
2023-03-06T06:24:37.505Z,9.70
2023-03-06T06:25:39.636Z,10.10
2023-03-06T06:26:42.487Z,9.90
2023-03-06T06:27:45.321Z,10.40
2023-03-06T06:28:47.159Z,9.98
2023-03-06T06:29:52.287Z,10.75
2023-03-06T06:30:54.240Z,10.48
2023-03-06T06:31:57.678Z,10.18
2023-03-06T06:33:01.885Z,9.88
2023-03-06T06:34:04.618Z,10.00
2023-03-06T06:35:08.241Z,9.50
2023-03-06T06:36:19.384Z,9.70
2023-03-06T06:37:22.334Z,8.45
2023-03-06T06:38:24.172Z,9.73
2023-03-06T06:39:27.066Z,9.90
2023-03-06T06:40:29.592Z,9.43
2023-03-06T06:41:51.008Z,10.95
2023-03-06T06:42:55.460Z,10.85
2023-03-06T06:43:59.070Z,9.95
2023-03-06T06:45:02.109Z,11.27
2023-03-06T06:46:28.311Z,10.63
2023-03-06T06:47:27.174Z,10.20
2023-03-06T06:48:29.120Z,10.45
2023-03-06T06:49:32.377Z,11.70
2023-03-06T06:50:34.285Z,10.05
2023-03-06T06:51:38.492Z,9.70
2023-03-06T06:52:41.997Z,9.35
2023-03-06T06:53:44.573Z,10.75
2023-03-06T06:54:47.446Z,11.68
2023-03-06T06:55:49.406Z,9.50
2023-03-06T06:56:52.327Z,10.05
2023-03-06T06:57:54.196Z,10.35
2023-03-06T06:59:15.379Z,10.07
2023-03-06T07:00:20.348Z,9.98
2023-03-06T07:01:22.688Z,9.57
2023-03-06T07:02:25.598Z,8.45
2023-03-06T07:03:27.488Z,11.32
2023-03-06T07:04:30.291Z,10.25
2023-03-06T07:05:33.075Z,10.02
2023-03-06T07:06:34.967Z,10.60
2023-03-06T07:07:39.306Z,10.38
2023-03-06T07:08:41.154Z,10.00
2023-03-06T07:09:43.976Z,10.30
2023-03-06T07:10:45.824Z,9.85
2023-03-06T07:11:48.794Z,8.85
2023-03-06T07:12:51.743Z,10.77
2023-03-06T07:13:53.666Z,9.63
2023-03-06T07:14:59.551Z,11.18
2023-03-06T07:16:01.609Z,11.43
2023-03-06T07:17:04.735Z,10.27
2023-03-06T07:18:06.566Z,9.60
2023-03-06T07:19:09.465Z,10.85
2023-03-06T07:20:12.663Z,11.55
2023-03-06T07:21:15.634Z,10.30
2023-03-06T07:22:17.519Z,11.10
2023-03-06T07:23:21.962Z,10.35
2023-03-06T07:24:23.856Z,10.80
2023-03-06T07:25:26.846Z,10.00
2023-03-06T07:26:32.723Z,12.55
2023-03-06T07:27:36.170Z,10.27
2023-03-06T07:28:51.571Z,10.25
2023-03-06T07:29:54.181Z,10.98
2023-03-06T07:30:57.064Z,11.32
2023-03-06T07:32:00.109Z,10.82
2023-03-06T07:33:02.926Z,10.55
2023-03-06T07:34:05.845Z,10.90
2023-03-06T07:35:19.674Z,10.75
2023-03-06T07:36:24.793Z,11.00
2023-03-06T07:37:28.506Z,10.43
2023-03-06T07:38:33.364Z,8.93
2023-03-06T07:39:35.226Z,11.70
2023-03-06T07:40:38.873Z,10.43
2023-03-06T07:41:41.808Z,10.55
2023-03-06T07:42:43.843Z,9.27
2023-03-06T07:43:49.309Z,10.02
2023-03-06T07:44:51.951Z,12.07
2023-03-06T07:45:58.836Z,9.55
2023-03-06T07:47:01.877Z,11.63
2023-03-06T07:48:06.442Z,9.85
2023-03-06T07:49:09.287Z,10.70
2023-03-06T07:50:12.656Z,11.80
2023-03-06T07:51:17.605Z,10.30
2023-03-06T07:52:19.483Z,12.25
2023-03-06T07:53:22.716Z,11.93
2023-03-06T07:54:26.978Z,10.75
2023-03-06T07:55:29.815Z,10.52
2023-03-06T07:56:34.904Z,10.77
2023-03-06T07:57:37.447Z,11.10
2023-03-06T07:58:42.545Z,12.05
2023-03-06T07:59:44.495Z,11.95
2023-03-06T08:00:47.835Z,11.02
2023-03-06T08:01:50.901Z,10.70
2023-03-06T08:02:53.852Z,11.70
2023-03-06T08:03:55.819Z,11.45
2023-03-06T08:04:58.763Z,12.65
2023-03-06T08:06:08.871Z,10.95
2023-03-06T08:07:13.146Z,10.88
2023-03-06T08:08:16.336Z,11.30
2023-03-06T08:09:18.203Z,12.00
2023-03-06T08:10:22.643Z,12.02
2023-03-06T08:11:27.323Z,12.00
2023-03-06T08:12:30.172Z,12.20
2023-03-06T08:13:33.494Z,10.43
2023-03-06T08:14:37.866Z,11.82
2023-03-06T08:15:40.729Z,11.23
2023-03-06T08:16:43.569Z,11.27
2023-03-06T08:17:46.469Z,10.30
2023-03-06T08:18:49.604Z,13.52
2023-03-06T08:19:52.429Z,11.13
2023-03-06T08:21:02.031Z,11.98
2023-03-06T08:22:05.938Z,12.13
2023-03-06T08:23:08.813Z,12.05
2023-03-06T08:24:13.195Z,11.70
2023-03-06T08:25:15.156Z,12.32
2023-03-06T08:26:21.947Z,13.10
2023-03-06T08:27:25.092Z,11.23
2023-03-06T08:28:27.114Z,11.77
2023-03-06T08:29:31.557Z,11.73
2023-03-06T08:30:35.389Z,12.20
2023-03-06T08:31:40.363Z,12.15
2023-03-06T08:32:43.298Z,11.02
2023-03-06T08:33:45.283Z,13.05
2023-03-06T08:34:48.104Z,10.23
2023-03-06T08:35:50.979Z,10.63
2023-03-06T08:36:55.381Z,11.70
2023-03-06T08:37:57.219Z,11.05
2023-03-06T08:39:00.928Z,12.05
2023-03-06T08:40:06.113Z,12.30
2023-03-06T08:41:09.815Z,11.00
2023-03-06T08:42:14.425Z,12.50
2023-03-06T08:43:17.310Z,13.13
2023-03-06T08:44:20.141Z,12.32
2023-03-06T08:45:22.094Z,11.18
2023-03-06T08:46:27.535Z,12.00
2023-03-06T08:47:29.529Z,12.70
2023-03-06T08:48:33.272Z,13.57
2023-03-06T08:49:38.292Z,11.75
2023-03-06T08:50:42.326Z,9.98
2023-03-06T08:51:44.218Z,10.73
2023-03-06T08:52:47.087Z,11.85
2023-03-06T08:53:50.136Z,13.18
2023-03-06T08:54:53.024Z,11.38
2023-03-06T08:55:54.971Z,13.30
2023-03-06T08:56:57.824Z,11.00
2023-03-06T08:58:02.073Z,11.98
2023-03-06T08:59:06.600Z,11.20
2023-03-06T09:00:11.139Z,11.40
2023-03-06T09:01:15.937Z,11.75
2023-03-06T09:02:18.808Z,11.23
2023-03-06T09:03:21.829Z,11.73
2023-03-06T09:04:24.715Z,12.23
2023-03-06T09:05:26.979Z,12.07
2023-03-06T09:06:32.848Z,10.85
2023-03-06T09:07:36.274Z,11.25
2023-03-06T09:08:38.409Z,10.60
2023-03-06T09:09:41.325Z,11.65
2023-03-06T09:10:46.920Z,10.88
2023-03-06T09:11:51.202Z,11.23
2023-03-06T09:12:55.432Z,11.95
2023-03-06T09:13:59.375Z,11.95
2023-03-06T09:15:05.189Z,12.52
2023-03-06T09:16:07.390Z,11.18
2023-03-06T09:17:10.291Z,13.15
2023-03-06T09:18:12.198Z,11.20
2023-03-06T09:19:15.139Z,10.00
2023-03-06T09:20:17.132Z,11.85
2023-03-06T09:21:20.218Z,11.30
2023-03-06T09:22:23.106Z,11.98
2023-03-06T09:23:25.995Z,11.00
2023-03-06T09:24:29.261Z,12.02
2023-03-06T09:25:32.102Z,10.95
2023-03-06T09:26:45.705Z,11.35
2023-03-06T09:28:08.687Z,12.60
2023-03-06T09:29:16.280Z,12.45
2023-03-06T09:30:19.901Z,11.77
2023-03-06T09:31:22.800Z,11.32
2023-03-06T09:32:26.839Z,10.57
2023-03-06T09:33:31.267Z,11.52
2023-03-06T09:34:34.141Z,11.57
2023-03-06T09:35:37.137Z,13.55
2023-03-06T09:36:55.527Z,10.65
2023-03-06T09:37:59.849Z,11.10
2023-03-06T09:39:03.045Z,13.00
2023-03-06T09:40:06.374Z,12.77
2023-03-06T09:41:20.088Z,12.82
2023-03-06T09:42:24.322Z,11.80
2023-03-06T09:43:30.148Z,11.55
2023-03-06T09:44:36.937Z,13.18
2023-03-06T09:45:38.801Z,9.60
2023-03-06T09:46:57.952Z,12.60
2023-03-06T09:48:05.933Z,11.25
2023-03-06T09:49:19.769Z,10.38
2023-03-06T09:50:33.665Z,10.98
2023-03-06T09:51:48.814Z,9.70
2023-03-06T09:53:04.123Z,10.32
2023-03-06T09:54:13.384Z,10.55
2023-03-06T09:55:18.771Z,11.00
2023-03-06T09:56:30.054Z,9.68
2023-03-06T09:57:36.752Z,10.57
2023-03-06T09:58:45.005Z,10.50
2023-03-06T09:59:53.484Z,10.70
2023-03-06T10:01:01.145Z,10.60
2023-03-06T10:02:15.992Z,10.40
2023-03-06T10:03:25.780Z,11.40
2023-03-06T10:04:37.979Z,12.23
2023-03-06T10:05:44.091Z,10.13
2023-03-06T10:06:50.337Z,9.68
2023-03-06T10:07:58.140Z,10.05
2023-03-06T10:09:04.808Z,9.70
2023-03-06T10:10:15.088Z,10.48
2023-03-06T10:11:23.733Z,9.73
2023-03-06T10:12:28.577Z,11.13
2023-03-06T10:13:38.261Z,10.80
2023-03-06T10:14:48.477Z,9.88
2023-03-06T10:15:59.756Z,10.05
2023-03-06T10:17:03.101Z,9.57
2023-03-06T10:18:06.344Z,7.68
2023-03-06T10:19:14.133Z,9.10
2023-03-06T10:20:19.697Z,11.05
2023-03-06T10:21:38.652Z,9.73
2023-03-06T10:23:00.066Z,10.07
2023-03-06T10:24:18.214Z,9.18
2023-03-06T10:25:28.018Z,9.88
2023-03-06T10:26:36.332Z,8.52
2023-03-06T10:27:47.080Z,10.15
2023-03-06T10:29:04.177Z,9.70
2023-03-06T10:30:23.059Z,9.98
2023-03-06T10:31:29.369Z,9.75
2023-03-06T10:32:48.680Z,11.73
2023-03-06T10:33:56.373Z,9.90
2023-03-06T10:35:00.968Z,8.93
2023-03-06T10:36:04.700Z,9.25
2023-03-06T10:37:18.156Z,9.20
2023-03-06T10:38:23.408Z,10.05
2023-03-06T10:39:25.324Z,9.80
2023-03-06T10:40:36.433Z,10.98
2023-03-06T10:41:39.342Z,9.52
2023-03-06T10:42:41.277Z,10.13
2023-03-06T10:43:46.339Z,9.38
2023-03-06T10:44:48.305Z,10.00
2023-03-06T10:45:53.441Z,9.57
2023-03-06T10:46:57.730Z,9.60
2023-03-06T10:48:11.152Z,9.75
2023-03-06T10:49:26.046Z,9.48
2023-03-06T10:50:32.264Z,8.43
2023-03-06T10:51:35.544Z,8.77
2023-03-06T10:52:38.463Z,9.52
2023-03-06T10:53:49.844Z,10.65
2023-03-06T10:54:52.719Z,10.98
2023-03-06T10:55:56.449Z,9.57
2023-03-06T10:56:59.796Z,11.07
2023-03-06T10:58:19.704Z,9.52
2023-03-06T10:59:25.161Z,8.70
2023-03-06T11:00:35.970Z,9.82
2023-03-06T11:01:39.729Z,9.98
2023-03-06T11:02:42.992Z,10.90
2023-03-06T11:03:46.449Z,9.65
2023-03-06T11:04:56.083Z,10.38
2023-03-06T11:06:05.322Z,10.43
2023-03-06T11:07:15.430Z,9.75
2023-03-06T11:08:23.320Z,10.43
2023-03-06T11:09:26.350Z,8.32
2023-03-06T11:10:34.129Z,9.38
2023-03-06T11:11:38.049Z,10.35
2023-03-06T11:12:43.752Z,10.88
2023-03-06T11:13:58.157Z,9.95
2023-03-06T11:15:17.570Z,10.75
2023-03-06T11:16:25.948Z,10.52
2023-03-06T11:17:29.543Z,9.88
2023-03-06T11:18:39.994Z,9.55
2023-03-06T11:19:42.016Z,10.57
2023-03-06T11:20:52.564Z,11.73
2023-03-06T11:22:03.504Z,9.60
2023-03-06T11:23:08.308Z,9.00
2023-03-06T11:24:19.710Z,9.75
2023-03-06T11:25:25.552Z,8.73
2023-03-06T11:26:40.620Z,9.80
2023-03-06T11:27:44.985Z,9.30
2023-03-06T11:28:58.153Z,9.90
2023-03-06T11:30:05.442Z,9.68
2023-03-06T11:31:14.657Z,10.27
2023-03-06T11:32:23.563Z,8.45
2023-03-06T11:33:31.792Z,9.10
2023-03-06T11:34:46.162Z,9.52
2023-03-06T11:35:57.871Z,8.85
2023-03-06T11:37:07.053Z,10.80
2023-03-06T11:38:18.809Z,9.82
2023-03-06T11:39:30.567Z,9.50
2023-03-06T11:40:40.834Z,10.43
2023-03-06T11:41:52.686Z,10.43
2023-03-06T11:43:03.721Z,10.35
2023-03-06T11:44:16.391Z,11.20
2023-03-06T11:45:25.160Z,9.80
2023-03-06T11:46:32.191Z,10.00
2023-03-06T11:47:39.693Z,9.35
2023-03-06T11:48:47.582Z,11.27
2023-03-06T11:49:56.517Z,10.32
2023-03-06T11:51:07.514Z,10.05
2023-03-06T11:52:19.920Z,10.90
2023-03-06T11:53:26.062Z,9.80
2023-03-06T11:54:27.902Z,9.27
2023-03-06T11:55:41.120Z,11.68
2023-03-06T11:56:54.727Z,9.45
2023-03-06T11:58:24.825Z,9.27
2023-03-06T12:00:02.903Z,9.43
2023-03-06T12:01:12.846Z,8.60
2023-03-06T12:02:25.036Z,9.52
2023-03-06T12:03:50.539Z,10.77
2023-03-06T12:05:09.125Z,10.85
2023-03-06T12:06:22.830Z,11.05
2023-03-06T12:07:32.253Z,9.85
2023-03-06T12:08:45.567Z,9.73
2023-03-06T12:09:55.510Z,10.50
2023-03-06T12:11:05.369Z,10.75
2023-03-06T12:12:23.048Z,9.75
2023-03-06T12:13:43.109Z,11.27
2023-03-06T12:15:00.836Z,10.02
2023-03-06T12:16:24.409Z,10.73
2023-03-06T12:17:38.473Z,9.00
2023-03-06T12:18:52.631Z,9.10
2023-03-06T12:20:25.873Z,9.73
2023-03-06T12:21:35.210Z,8.70
2023-03-06T12:22:57.915Z,10.65
2023-03-06T12:24:24.362Z,9.18
2023-03-06T12:25:35.179Z,8.65
2023-03-06T12:26:52.654Z,9.63
2023-03-06T12:28:07.616Z,10.80
2023-03-06T12:29:27.983Z,9.52
2023-03-06T12:30:42.881Z,10.38
2023-03-06T12:32:04.058Z,9.60
2023-03-06T12:33:18.216Z,10.68
2023-03-06T12:34:37.897Z,9.88
2023-03-06T12:35:56.487Z,9.32
2023-03-06T12:37:11.927Z,9.50
2023-03-06T12:38:36.522Z,9.85
2023-03-06T12:39:53.733Z,11.93
2023-03-06T12:41:08.917Z,11.02
2023-03-06T12:42:27.012Z,11.25
2023-03-06T12:43:47.404Z,9.52
2023-03-06T12:45:10.766Z,11.57
2023-03-06T12:46:16.105Z,10.07
2023-03-06T12:47:22.385Z,8.88
2023-03-06T12:48:29.413Z,9.60
2023-03-06T12:49:38.622Z,9.07
2023-03-06T12:50:45.379Z,11.18
2023-03-06T12:51:49.945Z,9.85
2023-03-06T12:52:54.591Z,10.85
2023-03-06T12:53:59.859Z,10.15
2023-03-06T12:55:07.163Z,10.55
2023-03-06T12:56:12.110Z,10.38
2023-03-06T12:57:15.183Z,9.95
2023-03-06T12:58:52.437Z,9.38
2023-03-06T12:59:56.183Z,8.27
2023-03-06T13:01:04.877Z,9.07
2023-03-06T13:02:41.256Z,10.45
2023-03-06T13:04:02.390Z,10.07
2023-03-06T13:05:38.083Z,9.35
2023-03-06T13:06:57.354Z,10.15
2023-03-06T13:08:14.773Z,8.40
2023-03-06T13:09:22.404Z,9.38
2023-03-06T13:10:27.775Z,8.50
2023-03-06T13:12:06.546Z,9.80
2023-03-06T13:13:31.844Z,8.57
2023-03-06T13:14:54.765Z,10.38
2023-03-06T13:16:13.592Z,10.82
2023-03-06T13:17:27.255Z,8.38
2023-03-06T13:19:02.009Z,10.30
2023-03-06T13:20:44.387Z,10.50
2023-03-06T13:22:09.699Z,8.93
2023-03-06T13:23:52.532Z,8.90
2023-03-06T13:25:37.267Z,9.70
2023-03-06T13:27:02.761Z,9.13
2023-03-06T13:28:04.992Z,9.68
2023-03-06T13:29:51.648Z,9.65
2023-03-06T13:30:56.375Z,8.65
2023-03-06T13:32:19.730Z,8.68
2023-03-06T13:33:57.895Z,9.88
2023-03-06T13:34:59.856Z,9.13
2023-03-06T13:36:22.374Z,8.80
2023-03-06T13:37:53.303Z,9.43
2023-03-06T13:38:58.344Z,9.55
2023-03-06T13:40:27.317Z,10.25
2023-03-06T13:41:56.967Z,7.93
2023-03-06T13:43:18.418Z,8.85
2023-03-06T13:44:50.973Z,9.80
2023-03-06T13:45:53.323Z,9.00
2023-03-06T13:46:59.060Z,8.48
2023-03-06T13:49:26.777Z,9.25
2023-03-06T13:50:37.571Z,10.07
2023-03-06T13:51:43.117Z,9.00
2023-03-06T13:52:57.214Z,9.63
2023-03-06T13:54:31.326Z,9.13
2023-03-06T13:55:42.992Z,8.90
2023-03-06T13:57:08.090Z,9.80
2023-03-06T13:58:25.529Z,9.88
2023-03-06T14:00:09.828Z,9.00
2023-03-06T14:01:23.290Z,8.73
2023-03-06T14:02:54.698Z,10.38
2023-03-06T14:04:48.500Z,7.90
2023-03-06T14:05:52.595Z,9.05
2023-03-06T14:07:24.865Z,9.85
2023-03-06T14:08:31.717Z,9.85
2023-03-06T14:09:37.328Z,8.27
2023-03-06T14:10:40.524Z,9.38
2023-03-06T14:11:51.276Z,9.55
2023-03-06T14:13:06.790Z,10.60
2023-03-06T14:14:12.094Z,8.77
2023-03-06T14:15:20.544Z,10.40
2023-03-06T14:16:24.468Z,9.77
2023-03-06T14:17:30.554Z,9.75
2023-03-06T14:18:38.373Z,9.30
2023-03-06T14:19:43.123Z,9.70
2023-03-06T14:20:49.659Z,8.82
2023-03-06T14:21:56.738Z,8.73
2023-03-06T14:23:15.229Z,9.68
2023-03-06T14:24:20.578Z,9.38
2023-03-06T14:25:30.758Z,9.15
2023-03-06T14:26:35.758Z,8.57
2023-03-06T14:27:44.094Z,8.70
2023-03-06T14:28:58.301Z,8.45
2023-03-06T14:30:06.148Z,9.75
2023-03-06T14:31:17.381Z,9.18
2023-03-06T14:32:23.514Z,9.75
2023-03-06T14:33:32.840Z,8.20
2023-03-06T14:34:41.005Z,8.85
2023-03-06T14:35:52.038Z,8.25
2023-03-06T14:36:56.804Z,9.07
2023-03-06T14:38:03.243Z,8.85